• Join FlightAware (Why Join?)
  • Login
  • US Flag 
09:05PM EDT


 

Airport Tracker/Info


-or-


 

Live Flight TrackerFlight Track Log ✈ JZA7807 ✈ 25-Aug-2013 ✈ CYYZ - CYSB

Flight Track Log - Related Links

Times and Time Zones

All times are in EDT time to prevent confusion due to time zone crossing. See the JZA7807 flight status page for this flight to view local times or setup timezone preferences in your user account.

Time Position Orientation Groundspeed Altitude Reporting Facility
EDT Latitude Longitude Course Direction KTS MPH feet Rate Location/Type
10:15AM 43.6667 -79.6167 90° East 10 12 600  Level Toronto Center
10:16AM 43.6667 -79.5833 90° East 30 35 600  Level Toronto Center
10:18AM 43.6667 -79.6167 270° West 30 35 600  Level Toronto Center
10:20AM 43.6833 -79.6167 360° North 10 12 600  Level Toronto Center
10:23AM 43.6833 -79.6167 36° Northeast 40 46 600  Level Toronto Center
10:24AM 43.6833 -79.6167 36° Northeast 10 12 600 180 Level Toronto Center
10:27AM 43.7705 -79.6457 346° North  Level FlightAware Approximate
10:33AM 43.7000 -79.6833 313° West 150 173 3,000  Level Toronto Center
10:34AM 44.1315 -79.7000 North  Level FlightAware Approximate
10:34AM 43.7500 -79.7000 346° North 160 184 4,100  Level Toronto Center
10:35AM 44.1970 -79.7167 North  Level FlightAware Approximate
10:35AM 43.8000 -79.7000 360° North 190 219 4,900  Level Toronto Center
10:36AM 44.2636 -79.7231 351° North  Level FlightAware Approximate
10:36AM 43.8500 -79.7000 360° North 210 242 5,600  Level Toronto Center
10:37AM 44.3298 -79.7373 351° North  Level FlightAware Approximate
10:37AM 43.9167 -79.7000 360° North 210 242 6,600  Level Toronto Center
10:38AM 43.9667 -79.7000 360° North 200 230 7,600 960 Climbing Toronto Center
10:39AM 44.0333 -79.7333 340° North 200 230 8,600 900 Climbing Toronto Center
10:40AM 44.0833 -79.7333 360° North 190 219 9,500 840 Climbing Toronto Center
10:42AM 44.1833 -79.7500 353° North 190 219 11,200 840 Climbing Toronto Center
10:43AM 44.2333 -79.7667 347° North 190 219 12,100 900 Climbing Toronto Center
10:44AM 44.2833 -79.8000 334° Northwest 190 219 13,000 900 Climbing Toronto Center
10:45AM 44.3333 -79.8167 347° North 190 219 13,900 900 Climbing Toronto Center
10:46AM 44.3833 -79.8500 335° Northwest 190 219 14,800 900 Climbing Toronto Center
10:47AM 44.4333 -79.8667 347° North 200 230 15,700 600 Climbing Toronto Center
10:48AM 44.5000 -79.8833 350° North 200 230 16,000 120 Climbing Toronto Center
10:49AM 44.5500 -79.9167 335° Northwest 220 253 16,000  Level Toronto Center
10:50AM 44.6167 -79.9333 350° North 230 265 16,000  Level Toronto Center
10:51AM 44.6833 -79.9667 340° North 240 276 16,000  Level Toronto Center
10:52AM 44.7500 -79.9833 350° North 240 276 16,000 60 Level Toronto Center
10:54AM 44.8667 -80.0333 343° North 230 265 16,200 60 Climbing Toronto Center
10:55AM 44.9333 -80.0500 350° North 240 276 16,200  Level Toronto Center
10:56AM 45.0000 -80.0833 341° North 240 276 16,200  Level Toronto Center
10:57AM 45.0667 -80.1333 332° Northwest 240 276 16,200 -60 Level Toronto Center
10:58AM 45.1333 -80.1500 350° North 240 276 16,100 -60 Descending Toronto Center
10:59AM 45.2000 -80.1833 341° North 240 276 16,100  Level Toronto Center
11:00AM 45.2500 -80.2000 347° North 240 276 16,100  Level Toronto Center
11:01AM 45.3167 -80.2333 341° North 240 276 16,100  Level Toronto Center
11:02AM 45.3833 -80.2500 350° North 240 276 16,100  Level Toronto Center
11:03AM 45.4500 -80.2667 350° North 240 276 16,100  Level Toronto Center
11:04AM 45.5167 -80.3000 341° North 240 276 16,100 -180 Level Toronto Center
11:05AM 45.5667 -80.3167 347° North 240 276 15,800 -540 Descending Toronto Center
11:06AM 45.6333 -80.3667 332° Northwest 250 288 15,100 -840 Descending Toronto Center
11:07AM 45.7167 -80.4000 344° North 260 299 14,200 -1,080 Descending Toronto Center
11:08AM 45.7833 -80.4167 350° North 270 311 13,000 -1,200 Descending Toronto Center
11:09AM 45.8500 -80.4500 341° North 280 322 11,900 -1,200 Descending Toronto Center
11:10AM 45.9333 -80.4667 352° North 280 322 10,700 -1,200 Descending Toronto Center
11:11AM 46.0000 -80.5167 332° Northwest 280 322 9,600 -1,020 Descending Toronto Center
11:12AM 46.0833 -80.5500 344° North 270 311 8,700 -960 Descending Toronto Center
11:13AM 46.1500 -80.5667 350° North 270 311 7,700 -900 Descending Toronto Center
11:14AM 46.2167 -80.6167 333° Northwest 270 311 6,900 -780 Descending Toronto Center
11:15AM 46.3000 -80.6500 345° North 270 311 6,200 -660 Descending Toronto Center
11:16AM 46.3667 -80.6667 350° North 260 299 5,600 -840 Descending Toronto Center
11:17AM 46.4333 -80.7000 341° North 270 311 4,600 -960 Descending Toronto Center
11:18AM 46.5167 -80.7167 352° North 270 311 3,700 -900 Descending Toronto Center
11:19AM 46.5833 -80.7167 360° North 260 299 2,900 -720 Descending Toronto Center
11:20AM 46.6333 -80.7167 360° North 200 230 2,300 -600 Descending Toronto Center
11:21AM 46.6500 -80.7667 296° West 130 150 1,700 -600 Descending Toronto Center